createdAt,value
2022-07-26T00:01:52.117Z,29.23
2022-07-26T00:04:19.579Z,29.10
2022-07-26T00:06:46.928Z,29.13
2022-07-26T00:09:14.564Z,29.17
2022-07-26T00:11:42.205Z,28.80
2022-07-26T00:14:09.643Z,28.79
2022-07-26T00:16:40.537Z,28.71
2022-07-26T00:19:08.325Z,28.65
2022-07-26T00:21:37.238Z,28.74
2022-07-26T00:24:08.563Z,28.50
2022-07-26T00:26:36.255Z,28.29
2022-07-26T00:29:06.777Z,28.21
2022-07-26T00:31:34.433Z,28.22
2022-07-26T00:34:01.833Z,28.04
2022-07-26T00:36:29.789Z,27.79
2022-07-26T00:38:57.163Z,27.58
2022-07-26T00:41:24.489Z,27.60
2022-07-26T00:43:59.857Z,27.45
2022-07-26T00:46:27.835Z,27.40
2022-07-26T00:48:55.384Z,27.39
2022-07-26T00:51:23.442Z,27.41
2022-07-26T00:53:53.296Z,27.33
2022-07-26T00:56:21.822Z,27.59
2022-07-26T00:58:49.182Z,27.52
2022-07-26T01:01:16.755Z,27.55
2022-07-26T01:03:44.487Z,27.51
2022-07-26T01:06:12.071Z,27.53
2022-07-26T01:08:39.434Z,27.50
2022-07-26T01:11:07.613Z,27.64
2022-07-26T01:13:35.662Z,27.62
2022-07-26T01:16:03.811Z,27.67
2022-07-26T01:18:31.188Z,27.64
2022-07-26T01:21:00.588Z,27.77
2022-07-26T01:23:28.250Z,27.81
2022-07-26T01:25:56.653Z,27.86
2022-07-26T01:28:24.007Z,27.85
2022-07-26T01:30:51.654Z,27.61
2022-07-26T01:33:19.100Z,27.38
2022-07-26T01:35:46.500Z,27.13
2022-07-26T01:38:13.993Z,27.05
2022-07-26T01:40:41.263Z,27.08
2022-07-26T01:43:08.595Z,27.06
2022-07-26T01:45:35.958Z,27.16
2022-07-26T01:48:03.468Z,27.06
2022-07-26T01:50:30.801Z,27.01
2022-07-26T01:52:58.164Z,26.96
2022-07-26T01:55:27.288Z,26.90
2022-07-26T01:57:55.011Z,26.89
2022-07-26T02:00:22.315Z,26.79
2022-07-26T02:02:49.765Z,26.82
2022-07-26T02:05:17.201Z,26.91
2022-07-26T02:07:44.832Z,26.90
2022-07-26T02:10:14.529Z,26.67
2022-07-26T02:12:42.415Z,26.65
2022-07-26T02:15:11.304Z,26.55
2022-07-26T02:17:38.672Z,26.57
2022-07-26T02:20:07.282Z,26.56
2022-07-26T02:22:35.716Z,26.59
2022-07-26T02:25:05.501Z,26.59
2022-07-26T02:27:33.282Z,26.59
2022-07-26T02:30:00.675Z,26.54
2022-07-26T02:32:28.094Z,26.62
2022-07-26T02:34:55.479Z,26.41
2022-07-26T02:37:22.783Z,26.51
2022-07-26T02:39:50.098Z,26.42
2022-07-26T02:42:17.390Z,26.54
2022-07-26T02:44:44.792Z,26.68
2022-07-26T02:47:12.691Z,26.78
2022-07-26T02:49:40.125Z,26.77
2022-07-26T02:52:07.472Z,26.59
2022-07-26T02:54:34.810Z,26.57
2022-07-26T02:57:02.249Z,26.62
2022-07-26T02:59:29.719Z,26.62
2022-07-26T03:01:57.119Z,26.81
2022-07-26T03:04:24.597Z,26.64
2022-07-26T03:06:51.941Z,26.63
2022-07-26T03:09:19.223Z,26.52
2022-07-26T03:11:46.726Z,26.58
2022-07-26T03:14:14.058Z,26.61
2022-07-26T03:16:41.418Z,26.77
2022-07-26T03:19:08.731Z,26.66
2022-07-26T03:21:36.292Z,26.66
2022-07-26T03:24:03.723Z,26.45
2022-07-26T03:26:31.063Z,26.50
2022-07-26T03:28:58.456Z,26.41
2022-07-26T03:31:25.882Z,26.26
2022-07-26T03:33:53.280Z,26.19
2022-07-26T03:36:20.562Z,26.17
2022-07-26T03:38:47.872Z,26.44
2022-07-26T03:41:15.210Z,26.50
2022-07-26T03:43:44.274Z,26.59
2022-07-26T03:46:11.766Z,26.32
2022-07-26T03:48:39.246Z,26.14
2022-07-26T03:51:06.850Z,26.07
2022-07-26T03:53:34.607Z,26.03
2022-07-26T03:56:21.209Z,26.00
2022-07-26T03:58:48.528Z,26.03
2022-07-26T04:01:15.965Z,25.99
2022-07-26T04:03:47.402Z,25.93
2022-07-26T04:06:15.227Z,25.89
2022-07-26T04:08:43.141Z,25.78
2022-07-26T04:11:10.565Z,25.90
2022-07-26T04:13:37.928Z,25.96
2022-07-26T04:16:06.341Z,25.98
2022-07-26T04:18:33.845Z,25.95
2022-07-26T04:21:01.187Z,26.01
2022-07-26T04:23:28.500Z,25.89
2022-07-26T04:25:55.970Z,26.06
2022-07-26T04:28:24.419Z,26.21
2022-07-26T04:30:51.836Z,26.33
2022-07-26T04:33:19.179Z,26.42
2022-07-26T04:35:46.579Z,26.37
2022-07-26T04:38:13.923Z,26.44
2022-07-26T04:40:41.273Z,26.46
2022-07-26T04:43:10.036Z,26.54
2022-07-26T04:45:44.685Z,26.72
2022-07-26T04:48:15.510Z,26.95
2022-07-26T04:50:43.438Z,26.73
2022-07-26T04:53:13.554Z,26.67
2022-07-26T04:55:41.726Z,26.71
2022-07-26T04:58:09.915Z,26.66
2022-07-26T05:00:56.797Z,26.71
2022-07-26T05:03:25.438Z,26.85
2022-07-26T05:05:53.002Z,26.83
2022-07-26T05:08:20.425Z,26.79
2022-07-26T05:10:55.600Z,27.01
2022-07-26T05:13:30.109Z,26.99
2022-07-26T05:15:59.607Z,27.09
2022-07-26T05:18:29.436Z,27.14
2022-07-26T05:20:59.119Z,27.23
2022-07-26T05:23:26.423Z,27.12
2022-07-26T05:25:53.956Z,27.23
2022-07-26T05:28:21.319Z,27.27
2022-07-26T05:30:48.655Z,27.33
2022-07-26T05:33:16.682Z,27.48
2022-07-26T05:35:44.233Z,27.63
2022-07-26T05:38:11.592Z,27.76
2022-07-26T05:40:38.914Z,27.78
2022-07-26T05:43:06.379Z,27.87
2022-07-26T05:45:33.758Z,27.86
2022-07-26T05:48:01.164Z,27.87
2022-07-26T05:50:28.748Z,28.02
2022-07-26T05:52:56.110Z,27.83
2022-07-26T05:55:23.474Z,27.96
2022-07-26T05:57:50.815Z,27.74
2022-07-26T06:00:19.204Z,28.07
2022-07-26T06:02:46.577Z,28.17
2022-07-26T06:05:15.786Z,28.13
2022-07-26T06:07:43.194Z,28.08
2022-07-26T06:10:10.531Z,28.33
2022-07-26T06:12:39.809Z,28.28
2022-07-26T06:15:15.452Z,28.36
2022-07-26T06:17:43.428Z,28.29
2022-07-26T06:20:11.226Z,28.63
2022-07-26T06:22:38.637Z,28.72
2022-07-26T06:25:06.784Z,29.05
2022-07-26T06:27:34.242Z,28.86
2022-07-26T06:30:01.763Z,28.67
2022-07-26T06:32:29.052Z,29.02
2022-07-26T06:34:56.545Z,29.05
2022-07-26T06:37:23.854Z,29.12
2022-07-26T06:39:51.140Z,29.43
2022-07-26T06:42:18.478Z,29.73
2022-07-26T06:44:46.470Z,29.91
2022-07-26T06:47:13.810Z,29.57
2022-07-26T06:49:41.346Z,29.82
2022-07-26T06:52:08.693Z,29.79
2022-07-26T06:54:36.659Z,29.73
2022-07-26T06:57:04.059Z,30.02
2022-07-26T06:59:31.693Z,29.78
2022-07-26T07:02:00.641Z,29.86
2022-07-26T07:04:33.076Z,29.87
2022-07-26T07:07:06.092Z,29.94
2022-07-26T07:09:34.141Z,30.10
2022-07-26T07:12:08.450Z,30.00
2022-07-26T07:14:39.113Z,30.29
2022-07-26T07:17:12.857Z,30.83
2022-07-26T07:19:41.667Z,31.00
2022-07-26T07:22:11.876Z,31.24
2022-07-26T07:24:40.219Z,31.35
2022-07-26T07:27:08.142Z,31.31
2022-07-26T07:29:41.422Z,31.20
2022-07-26T07:32:15.951Z,31.47
2022-07-26T07:34:49.986Z,31.77
2022-07-26T07:37:20.012Z,32.35
2022-07-26T07:39:49.945Z,32.88
2022-07-26T07:42:19.450Z,32.56
2022-07-26T07:44:47.079Z,32.77
2022-07-26T07:47:14.727Z,33.18
2022-07-26T07:49:42.108Z,33.24
2022-07-26T07:52:09.529Z,33.14
2022-07-26T07:54:36.886Z,33.23
2022-07-26T07:57:05.879Z,32.59
2022-07-26T07:59:33.214Z,32.61
2022-07-26T08:02:06.763Z,32.51
2022-07-26T08:04:34.193Z,32.45
2022-07-26T08:07:01.580Z,33.19
2022-07-26T08:09:29.036Z,33.11
2022-07-26T08:11:56.403Z,33.47
2022-07-26T08:14:24.267Z,33.37
2022-07-26T08:16:52.464Z,33.55
2022-07-26T08:19:20.179Z,33.80
2022-07-26T08:21:49.998Z,33.86
2022-07-26T08:24:17.711Z,34.14
2022-07-26T08:26:45.153Z,34.22
2022-07-26T08:29:13.028Z,34.08
2022-07-26T08:31:40.689Z,34.25
2022-07-26T08:34:08.056Z,34.05
2022-07-26T08:36:35.410Z,34.12
2022-07-26T08:39:03.842Z,34.48
2022-07-26T08:41:31.749Z,34.84
2022-07-26T08:44:10.050Z,35.16
2022-07-26T08:46:39.546Z,34.81
2022-07-26T08:49:08.470Z,34.77
2022-07-26T08:51:40.881Z,34.96
2022-07-26T08:54:08.265Z,34.64
2022-07-26T08:56:37.606Z,34.62
2022-07-26T08:59:20.636Z,34.79
2022-07-26T09:01:58.652Z,34.94
2022-07-26T09:04:32.362Z,35.21
2022-07-26T09:07:05.053Z,34.92
2022-07-26T09:09:34.653Z,34.88
2022-07-26T09:12:17.317Z,35.22
2022-07-26T09:14:49.350Z,35.25
2022-07-26T09:17:18.600Z,35.48
2022-07-26T09:19:46.739Z,35.38
2022-07-26T09:22:17.167Z,35.62
2022-07-26T09:24:46.731Z,35.93
2022-07-26T09:27:18.284Z,35.62
2022-07-26T09:29:49.182Z,35.73
2022-07-26T09:32:22.902Z,35.46
2022-07-26T09:34:59.097Z,35.77
2022-07-26T09:37:37.416Z,35.79
2022-07-26T09:40:13.685Z,35.96
2022-07-26T09:43:02.395Z,35.89
2022-07-26T09:45:31.951Z,35.94
2022-07-26T09:48:01.712Z,36.19
2022-07-26T09:50:32.233Z,35.69
2022-07-26T09:53:08.484Z,36.01
2022-07-26T09:55:45.221Z,36.16
2022-07-26T09:58:14.725Z,35.90
2022-07-26T10:00:43.632Z,36.35
2022-07-26T10:03:11.593Z,36.08
2022-07-26T10:05:39.181Z,36.00
2022-07-26T10:08:07.883Z,36.40
2022-07-26T10:10:58.590Z,36.63
2022-07-26T10:13:27.719Z,36.44
2022-07-26T10:15:56.720Z,36.64
2022-07-26T10:18:38.062Z,36.77
2022-07-26T10:21:25.886Z,36.94
2022-07-26T10:23:58.821Z,37.07
2022-07-26T10:26:31.947Z,37.42
2022-07-26T10:29:17.382Z,37.46
2022-07-26T10:31:54.429Z,37.06
2022-07-26T10:34:48.311Z,36.68
2022-07-26T10:37:27.583Z,36.52
2022-07-26T10:40:22.529Z,35.82
2022-07-26T10:42:49.922Z,35.57
2022-07-26T10:45:20.843Z,35.98
2022-07-26T10:48:09.575Z,36.53
2022-07-26T10:50:41.265Z,37.08
2022-07-26T10:53:17.827Z,36.80
2022-07-26T10:55:56.343Z,36.59
2022-07-26T10:58:26.211Z,36.49
2022-07-26T11:01:01.363Z,37.10
2022-07-26T11:03:39.625Z,37.24
2022-07-26T11:06:15.287Z,37.02
2022-07-26T11:08:48.194Z,37.11
2022-07-26T11:11:31.454Z,37.11
2022-07-26T11:14:10.889Z,37.39
2022-07-26T11:16:44.875Z,37.62
2022-07-26T11:19:17.878Z,37.53
2022-07-26T11:21:46.687Z,37.81
2022-07-26T11:24:14.642Z,37.80
2022-07-26T11:26:44.587Z,37.24
2022-07-26T11:29:16.922Z,37.36
2022-07-26T11:31:51.933Z,37.07
2022-07-26T11:34:33.113Z,36.69
2022-07-26T11:37:03.197Z,36.27
2022-07-26T11:39:33.181Z,36.75
2022-07-26T11:42:04.978Z,36.90
2022-07-26T11:44:33.116Z,36.85
2022-07-26T11:47:10.138Z,37.34
2022-07-26T11:50:11.687Z,36.82
2022-07-26T11:52:30.193Z,36.80
2022-07-26T11:54:57.597Z,36.75
2022-07-26T11:57:29.941Z,36.69
2022-07-26T11:59:58.843Z,36.47
2022-07-26T12:02:27.970Z,36.39
2022-07-26T12:05:27.789Z,36.10
2022-07-26T12:08:02.782Z,36.50
2022-07-26T12:10:30.400Z,36.64
2022-07-26T12:13:14.133Z,37.19
2022-07-26T12:15:52.691Z,37.01
2022-07-26T12:18:31.260Z,36.66
2022-07-26T12:21:08.853Z,36.79
2022-07-26T12:23:54.704Z,36.47
2022-07-26T12:26:24.768Z,36.41
2022-07-26T12:28:54.466Z,36.35
2022-07-26T12:31:31.650Z,36.55
2022-07-26T12:34:22.200Z,36.83
2022-07-26T12:36:49.775Z,37.13
2022-07-26T12:39:23.188Z,36.55
2022-07-26T12:41:50.815Z,36.68
2022-07-26T12:44:18.203Z,36.35
2022-07-26T12:46:45.700Z,36.26
2022-07-26T12:49:13.346Z,36.60
2022-07-26T12:51:41.367Z,36.94
2022-07-26T12:54:09.146Z,37.30
2022-07-26T12:56:36.712Z,36.76
2022-07-26T12:59:04.099Z,36.45
2022-07-26T13:01:32.138Z,37.02
2022-07-26T13:04:00.069Z,37.18
2022-07-26T13:06:27.457Z,37.21
2022-07-26T13:08:56.407Z,37.39
2022-07-26T13:11:23.920Z,37.63
2022-07-26T13:13:51.340Z,37.06
2022-07-26T13:16:18.759Z,37.21
2022-07-26T13:18:46.690Z,37.37
2022-07-26T13:21:14.352Z,37.46
2022-07-26T13:23:41.693Z,36.88
2022-07-26T13:26:09.207Z,36.79
2022-07-26T13:28:37.744Z,37.03
2022-07-26T13:31:05.496Z,37.28
2022-07-26T13:33:33.277Z,37.30
2022-07-26T13:36:00.664Z,37.21
2022-07-26T13:38:28.912Z,37.29
2022-07-26T13:40:58.371Z,37.01
2022-07-26T13:43:26.056Z,37.19
2022-07-26T13:45:53.429Z,37.08
2022-07-26T13:48:20.918Z,36.96
2022-07-26T13:50:48.917Z,36.59
2022-07-26T13:53:16.418Z,36.81
2022-07-26T13:55:43.832Z,37.14
2022-07-26T13:58:11.588Z,36.93
2022-07-26T14:00:40.484Z,36.61
2022-07-26T14:03:08.239Z,35.86
2022-07-26T14:05:35.734Z,35.84
2022-07-26T14:08:03.334Z,36.13
2022-07-26T14:10:30.789Z,36.34
2022-07-26T14:12:58.918Z,36.22
2022-07-26T14:15:27.220Z,36.18
2022-07-26T14:17:54.744Z,35.69
2022-07-26T14:20:22.676Z,35.66
2022-07-26T14:22:56.432Z,36.00
2022-07-26T14:25:25.995Z,36.06
2022-07-26T14:27:54.941Z,35.49
2022-07-26T14:30:22.687Z,35.71
2022-07-26T14:32:50.267Z,35.67
2022-07-26T14:35:17.722Z,35.83
2022-07-26T14:37:46.016Z,35.96
2022-07-26T14:40:17.960Z,35.99
2022-07-26T14:42:46.257Z,35.93
2022-07-26T14:45:14.428Z,36.10
2022-07-26T14:47:42.525Z,36.08
2022-07-26T14:50:11.770Z,35.73
2022-07-26T14:52:41.237Z,35.60
2022-07-26T14:55:09.771Z,35.65
2022-07-26T14:57:39.881Z,35.79
2022-07-26T15:00:10.269Z,35.60
2022-07-26T15:02:42.461Z,35.42
2022-07-26T15:05:11.528Z,35.52
2022-07-26T15:07:41.015Z,35.57
2022-07-26T15:10:10.527Z,35.14
2022-07-26T15:12:38.915Z,34.97
2022-07-26T15:15:07.739Z,35.24
2022-07-26T15:17:35.850Z,35.30
2022-07-26T15:20:05.228Z,34.86
2022-07-26T15:22:32.715Z,34.81
2022-07-26T15:25:00.301Z,34.51
2022-07-26T15:27:27.850Z,34.80
2022-07-26T15:30:03.420Z,34.71
2022-07-26T15:32:33.853Z,34.59
2022-07-26T15:35:01.331Z,34.63
2022-07-26T15:37:28.926Z,34.87
2022-07-26T15:39:56.253Z,34.65
2022-07-26T15:42:23.571Z,34.83
2022-07-26T15:44:52.212Z,34.86
2022-07-26T15:47:52.504Z,34.74
2022-07-26T15:50:12.723Z,35.01
2022-07-26T15:52:44.648Z,34.50
2022-07-26T15:55:14.346Z,34.63
2022-07-26T15:57:41.712Z,34.49
2022-07-26T16:00:10.949Z,34.27
2022-07-26T16:02:40.515Z,34.57
2022-07-26T16:05:09.442Z,34.57
2022-07-26T16:07:37.488Z,34.71
2022-07-26T16:10:05.411Z,34.60
2022-07-26T16:12:33.150Z,34.46
2022-07-26T16:15:00.813Z,34.43
2022-07-26T16:17:28.273Z,34.06
2022-07-26T16:19:55.592Z,34.28
2022-07-26T16:22:23.155Z,34.42
2022-07-26T16:24:50.814Z,34.42
2022-07-26T16:27:18.186Z,34.42
2022-07-26T16:29:50.263Z,34.20
2022-07-26T16:32:21.092Z,34.24
2022-07-26T16:34:48.803Z,34.20
2022-07-26T16:37:16.278Z,34.12
2022-07-26T16:39:43.692Z,34.10
2022-07-26T16:42:11.030Z,34.19
2022-07-26T16:44:38.746Z,34.00
2022-07-26T16:47:06.265Z,34.08
2022-07-26T16:49:36.644Z,33.91
2022-07-26T16:52:04.815Z,33.83
2022-07-26T16:54:36.448Z,33.83
2022-07-26T16:57:06.676Z,33.75
2022-07-26T16:59:34.378Z,33.72
2022-07-26T17:02:02.816Z,33.86
2022-07-26T17:04:30.589Z,33.58
2022-07-26T17:07:23.423Z,33.44
2022-07-26T17:09:45.358Z,33.50
2022-07-26T17:12:12.671Z,33.38
2022-07-26T17:14:40.120Z,33.17
2022-07-26T17:17:07.471Z,33.20
2022-07-26T17:19:34.889Z,33.08
2022-07-26T17:22:02.237Z,33.03
2022-07-26T17:24:29.705Z,32.94
2022-07-26T17:26:57.336Z,32.99
2022-07-26T17:29:24.713Z,33.12
2022-07-26T17:31:52.851Z,33.11
2022-07-26T17:34:20.349Z,33.04
2022-07-26T17:36:47.719Z,33.05
2022-07-26T17:39:17.088Z,33.06
2022-07-26T17:41:49.044Z,33.03
2022-07-26T17:44:16.671Z,32.80
2022-07-26T17:46:44.169Z,32.80
2022-07-26T17:49:13.083Z,32.66
2022-07-26T17:51:41.651Z,32.60
2022-07-26T17:54:09.358Z,32.43
2022-07-26T17:56:36.691Z,32.26
2022-07-26T17:59:04.096Z,32.35
2022-07-26T18:01:31.516Z,32.27
2022-07-26T18:04:01.458Z,32.19
2022-07-26T18:06:28.905Z,32.07
2022-07-26T18:08:56.506Z,32.03
2022-07-26T18:11:23.818Z,31.86
2022-07-26T18:13:51.134Z,31.81
2022-07-26T18:16:18.794Z,31.81
2022-07-26T18:18:46.170Z,31.75
2022-07-26T18:21:15.065Z,31.64
2022-07-26T18:24:00.381Z,31.59
2022-07-26T18:26:29.736Z,31.61
2022-07-26T18:28:57.131Z,31.64
2022-07-26T18:31:24.966Z,31.39
2022-07-26T18:33:52.335Z,31.31
2022-07-26T18:36:19.648Z,31.31
2022-07-26T18:38:46.995Z,31.28
2022-07-26T18:41:14.459Z,31.19
2022-07-26T18:43:43.468Z,31.16
2022-07-26T18:46:10.873Z,31.20
2022-07-26T18:48:41.665Z,31.08
2022-07-26T18:51:12.056Z,31.08
2022-07-26T18:53:39.698Z,31.08
2022-07-26T18:56:08.915Z,30.93
2022-07-26T18:58:37.406Z,31.04
2022-07-26T19:01:09.505Z,31.06
2022-07-26T19:03:37.067Z,31.06
2022-07-26T19:06:05.245Z,30.97
2022-07-26T19:08:32.580Z,30.90
2022-07-26T19:10:59.911Z,30.81
2022-07-26T19:13:27.270Z,30.77
2022-07-26T19:15:54.676Z,30.78
2022-07-26T19:18:22.117Z,30.83
2022-07-26T19:20:49.523Z,30.76
2022-07-26T19:23:19.537Z,30.52
2022-07-26T19:25:47.255Z,30.62
2022-07-26T19:28:15.088Z,30.60
2022-07-26T19:30:43.110Z,30.60
2022-07-26T19:33:10.497Z,30.55
2022-07-26T19:35:37.819Z,30.64
2022-07-26T19:38:05.333Z,30.57
2022-07-26T19:40:32.640Z,30.55
2022-07-26T19:43:00.002Z,30.43
2022-07-26T19:45:29.620Z,30.43
2022-07-26T19:47:56.979Z,30.48
2022-07-26T19:50:24.363Z,30.39
2022-07-26T19:52:51.670Z,30.39
2022-07-26T19:55:19.206Z,30.51
2022-07-26T19:57:46.550Z,30.48
2022-07-26T20:00:14.676Z,30.54
2022-07-26T20:02:42.101Z,30.39
2022-07-26T20:05:10.823Z,30.40
2022-07-26T20:07:38.867Z,30.28
2022-07-26T20:10:07.227Z,30.40
2022-07-26T20:12:35.487Z,30.43
2022-07-26T20:15:02.931Z,30.27
2022-07-26T20:17:35.387Z,30.23
2022-07-26T20:20:05.760Z,30.40
2022-07-26T20:22:33.314Z,30.21
2022-07-26T20:25:00.737Z,30.18
2022-07-26T20:27:28.896Z,30.25
2022-07-26T20:30:00.760Z,30.30
2022-07-26T20:32:28.558Z,30.34
2022-07-26T20:34:55.899Z,30.28
2022-07-26T20:37:23.279Z,30.13
2022-07-26T20:39:51.394Z,30.16
2022-07-26T20:42:21.656Z,30.12
2022-07-26T20:44:49.440Z,30.05
2022-07-26T20:47:16.760Z,29.93
2022-07-26T20:49:44.766Z,29.91
2022-07-26T20:52:12.065Z,29.98
2022-07-26T20:54:39.368Z,30.00
2022-07-26T20:57:06.759Z,29.99
2022-07-26T20:59:35.059Z,29.84
2022-07-26T21:02:02.499Z,29.82
2022-07-26T21:04:30.639Z,29.77
2022-07-26T21:06:58.967Z,29.84
2022-07-26T21:09:27.377Z,29.93
2022-07-26T21:11:54.752Z,29.95
2022-07-26T21:14:22.240Z,30.08
2022-07-26T21:16:49.670Z,29.82
2022-07-26T21:19:17.112Z,29.82
2022-07-26T21:21:46.792Z,29.85
2022-07-26T21:24:14.258Z,29.82
2022-07-26T21:26:41.606Z,29.76
2022-07-26T21:29:09.193Z,29.74
2022-07-26T21:31:36.969Z,29.77
2022-07-26T21:34:04.855Z,29.81
2022-07-26T21:36:32.998Z,29.78
2022-07-26T21:39:00.282Z,29.86
2022-07-26T21:41:27.661Z,29.91
2022-07-26T21:43:55.006Z,29.86
2022-07-26T21:46:23.048Z,29.58
2022-07-26T21:48:50.937Z,29.62
2022-07-26T21:51:19.048Z,29.57
2022-07-26T21:53:47.148Z,29.59
2022-07-26T21:56:14.775Z,29.55
2022-07-26T21:58:42.317Z,29.57
2022-07-26T22:01:12.512Z,29.53
2022-07-26T22:03:41.847Z,29.43
2022-07-26T22:06:09.975Z,29.43
2022-07-26T22:08:37.499Z,29.37
2022-07-26T22:11:05.484Z,29.35
2022-07-26T22:13:32.866Z,29.45
2022-07-26T22:16:00.337Z,29.32
2022-07-26T22:18:27.986Z,29.40
2022-07-26T22:20:55.931Z,29.47
2022-07-26T22:23:29.805Z,29.58
2022-07-26T22:26:02.137Z,29.45
2022-07-26T22:28:31.116Z,29.56
2022-07-26T22:30:59.663Z,29.64
2022-07-26T22:33:28.906Z,29.64
2022-07-26T22:35:56.693Z,29.63
2022-07-26T22:38:24.557Z,29.60
2022-07-26T22:40:52.471Z,29.53
2022-07-26T22:43:20.515Z,29.61
2022-07-26T22:45:49.115Z,29.64
2022-07-26T22:48:16.709Z,29.66
2022-07-26T22:50:44.301Z,29.65
2022-07-26T22:53:11.684Z,29.67
2022-07-26T22:55:39.188Z,29.64
2022-07-26T22:58:06.500Z,29.71
2022-07-26T23:00:33.982Z,29.54
2022-07-26T23:03:01.498Z,29.81
2022-07-26T23:05:36.052Z,29.67
2022-07-26T23:08:43.799Z,29.61
2022-07-26T23:11:00.583Z,29.66
2022-07-26T23:13:27.881Z,29.57
2022-07-26T23:16:00.540Z,29.61
2022-07-26T23:18:29.506Z,29.60
2022-07-26T23:20:57.925Z,29.51
2022-07-26T23:23:29.863Z,29.49
2022-07-26T23:26:00.500Z,29.59
2022-07-26T23:28:37.187Z,29.62
2022-07-26T23:31:11.144Z,29.61
2022-07-26T23:33:52.292Z,29.75
2022-07-26T23:36:25.893Z,29.63
2022-07-26T23:38:54.867Z,29.60
2022-07-26T23:41:22.775Z,29.91
2022-07-26T23:43:50.415Z,29.84
2022-07-26T23:46:18.214Z,29.67
2022-07-26T23:48:46.016Z,29.56
2022-07-26T23:51:13.474Z,29.44
2022-07-26T23:53:41.298Z,29.33
2022-07-26T23:56:08.797Z,29.28
2022-07-26T23:58:36.852Z,29.39
